Main page
METAR-TAF:

METAR-TAF

Airports :

Hof–Plauen Airport

Hof, Germany

latitude: 50-19N, longitude: 011-53E, elevation: 567 m

Current weather observation

The report was made 41 minutes ago, at 16:50 UTC
Wind 14 kt from the East
Temperature 16°C
Humidity 25%
Pressure 1009 hPa
Visibility 10 km or more
no clouds below 1500 m and no cumulonimbus

METAR: EDQM 221650Z 10014KT CAVOK 16/M04 Q1009

Time: 19:31 (17:31 UTC)

Forecast

The report was made 3 hours and 31 minutes ago, at 14:00 UTC
Forecast valid from 22 at 15 UTC to 22 at 24 UTC
Wind 10 kt from the East
Visibility 10 km or more
no clouds below 1500 m and no cumulonimbus

TAF: EDQM 221400Z 2215/2224 10010KT CAVOK

Weather observations and forecasts of more than 4000 airports (METAR and TAF reports).

The available stations are represented by yellow and red dots on the map.

Hover mouse over dot to see the name of the station.

Then click to see weather observations and forecasts.

To change the map : click on the green buttons with a black cross to zoom in, on the green button with a dash to zoom out, or on the green arrows for adjacent maps.


METAR-TAF: